createdAt,value
2017-10-18T00:02:02.551Z,49.60
2017-10-18T00:04:30.894Z,50.30
2017-10-18T00:06:58.442Z,50.30
2017-10-18T00:09:25.943Z,49.80
2017-10-18T00:11:54.213Z,49.30
2017-10-18T00:14:22.535Z,48.70
2017-10-18T00:16:50.033Z,49.20
2017-10-18T00:19:17.572Z,49.00
2017-10-18T00:21:45.085Z,49.00
2017-10-18T00:24:12.598Z,49.30
2017-10-18T00:26:40.129Z,49.10
2017-10-18T00:29:07.634Z,49.40
2017-10-18T00:31:35.946Z,48.40
2017-10-18T00:34:03.445Z,48.40
2017-10-18T00:36:30.950Z,48.20
2017-10-18T00:38:58.481Z,48.60
2017-10-18T00:41:26.750Z,49.80
2017-10-18T00:43:54.277Z,49.70
2017-10-18T00:46:21.784Z,49.30
2017-10-18T00:48:49.308Z,49.20
2017-10-18T00:51:16.823Z,49.40
2017-10-18T00:53:44.365Z,49.70
2017-10-18T00:56:11.862Z,49.80
2017-10-18T00:58:39.373Z,49.90
2017-10-18T01:01:06.912Z,50.00
2017-10-18T01:06:28.051Z,49.80
2017-10-18T01:08:55.580Z,49.80
2017-10-18T01:11:23.091Z,49.80
2017-10-18T01:13:50.645Z,49.90
2017-10-18T01:16:18.142Z,49.80
2017-10-18T01:18:45.645Z,49.50
2017-10-18T01:21:13.187Z,49.60
2017-10-18T01:23:41.511Z,50.30
2017-10-18T01:26:09.060Z,50.30
2017-10-18T01:28:37.358Z,49.50
2017-10-18T01:31:04.866Z,49.50
2017-10-18T01:33:33.157Z,49.50
2017-10-18T01:36:00.655Z,49.50
2017-10-18T01:38:28.190Z,49.80
2017-10-18T01:40:55.700Z,50.00
2017-10-18T01:43:23.991Z,50.00
2017-10-18T01:45:51.501Z,50.00
2017-10-18T01:48:19.002Z,50.40
2017-10-18T01:50:46.551Z,50.70
2017-10-18T01:53:14.054Z,50.70
2017-10-18T01:55:41.553Z,50.70
2017-10-18T01:58:09.849Z,50.50
2017-10-18T02:00:37.350Z,50.50
2017-10-18T02:03:04.888Z,50.70
2017-10-18T02:05:32.385Z,50.30
2017-10-18T02:07:59.885Z,50.70
2017-10-18T02:10:27.425Z,50.50
2017-10-18T02:12:54.942Z,50.70
2017-10-18T02:15:22.455Z,50.60
2017-10-18T02:17:49.981Z,50.60
2017-10-18T02:20:18.250Z,50.60
2017-10-18T02:22:46.549Z,50.30
2017-10-18T02:25:14.053Z,50.30
2017-10-18T02:27:41.593Z,50.50
2017-10-18T02:30:09.106Z,50.50
2017-10-18T02:32:36.605Z,50.20
2017-10-18T02:35:04.152Z,50.30
2017-10-18T02:37:31.654Z,50.60
2017-10-18T02:39:59.156Z,50.10
2017-10-18T02:42:26.686Z,49.90
2017-10-18T02:44:54.961Z,50.40
2017-10-18T02:47:23.274Z,50.60
2017-10-18T02:49:50.773Z,50.50
2017-10-18T02:52:18.306Z,50.40
2017-10-18T02:54:45.847Z,50.00
2017-10-18T02:57:13.345Z,49.90
2017-10-18T02:59:40.844Z,50.10
2017-10-18T03:02:08.382Z,49.70
2017-10-18T03:04:36.657Z,49.70
2017-10-18T03:07:04.950Z,49.80
2017-10-18T03:09:32.489Z,49.80
2017-10-18T03:12:00.757Z,49.90
2017-10-18T03:14:29.054Z,50.20
2017-10-18T03:16:56.764Z,50.20
2017-10-18T03:19:24.292Z,49.80
2017-10-18T03:21:51.811Z,48.80
2017-10-18T03:24:20.105Z,48.80
2017-10-18T03:26:47.646Z,48.80
2017-10-18T03:29:15.917Z,48.80
2017-10-18T03:31:44.232Z,48.60
2017-10-18T03:34:11.736Z,48.50
2017-10-18T03:36:39.239Z,48.50
2017-10-18T03:39:06.778Z,49.40
2017-10-18T03:41:35.062Z,48.50
2017-10-18T03:44:02.588Z,48.50
2017-10-18T03:46:30.108Z,48.70
2017-10-18T03:48:57.645Z,49.00
2017-10-18T03:51:25.185Z,48.70
2017-10-18T03:53:53.463Z,48.80
2017-10-18T03:56:22.426Z,48.80
2017-10-18T04:01:34.048Z,48.70
2017-10-18T04:04:01.576Z,48.70
2017-10-18T04:06:29.096Z,48.50
2017-10-18T04:08:56.586Z,48.50
2017-10-18T04:11:24.132Z,48.40
2017-10-18T04:13:51.628Z,48.70
2017-10-18T04:16:19.937Z,48.50
2017-10-18T04:18:47.427Z,48.40
2017-10-18T04:21:14.919Z,48.30
2017-10-18T04:23:43.204Z,48.20
2017-10-18T04:26:10.797Z,48.20
2017-10-18T04:28:38.300Z,48.90
2017-10-18T04:31:06.571Z,48.90
2017-10-18T04:33:34.088Z,48.80
2017-10-18T04:36:01.587Z,48.90
2017-10-18T04:38:29.903Z,48.30
2017-10-18T04:40:57.385Z,48.30
2017-10-18T04:43:24.915Z,48.30
2017-10-18T04:45:52.410Z,48.40
2017-10-18T04:48:19.961Z,48.50
2017-10-18T04:50:47.469Z,48.50
2017-10-18T04:53:14.978Z,48.40
2017-10-18T04:55:42.494Z,48.60
2017-10-18T04:58:10.029Z,49.00
2017-10-18T05:00:38.277Z,48.80
2017-10-18T05:03:05.770Z,48.80
2017-10-18T05:05:33.289Z,48.70
2017-10-18T05:08:00.812Z,48.40
2017-10-18T05:10:28.320Z,49.00
2017-10-18T05:12:56.585Z,49.40
2017-10-18T05:15:24.121Z,48.80
2017-10-18T05:17:51.608Z,48.50
2017-10-18T05:20:19.900Z,49.10
2017-10-18T05:22:48.191Z,49.20
2017-10-18T05:25:15.699Z,49.20
2017-10-18T05:27:43.221Z,49.10
2017-10-18T05:30:10.737Z,48.70
2017-10-18T05:32:39.038Z,49.30
2017-10-18T05:35:06.563Z,49.20
2017-10-18T05:37:34.821Z,49.00
2017-10-18T05:40:03.168Z,49.00
2017-10-18T05:42:30.698Z,48.90
2017-10-18T05:44:58.191Z,49.10
2017-10-18T05:47:25.680Z,48.90
2017-10-18T05:49:53.209Z,49.20
2017-10-18T05:52:20.700Z,49.00
2017-10-18T05:54:48.996Z,49.90
2017-10-18T05:57:16.484Z,49.40
2017-10-18T05:59:43.981Z,49.50
2017-10-18T06:02:12.268Z,50.10
2017-10-18T06:04:40.524Z,50.40
2017-10-18T06:07:08.060Z,50.40
2017-10-18T06:09:35.551Z,50.90
2017-10-18T06:12:03.048Z,51.20
2017-10-18T06:14:31.365Z,51.60
2017-10-18T06:16:58.856Z,51.70
2017-10-18T06:19:26.401Z,51.70
2017-10-18T06:21:53.936Z,51.70
2017-10-18T06:24:21.451Z,51.50
2017-10-18T06:26:49.765Z,51.80
2017-10-18T06:29:17.316Z,51.80
2017-10-18T06:31:44.821Z,51.90
2017-10-18T06:34:12.348Z,51.90
2017-10-18T06:36:39.857Z,51.90
2017-10-18T06:39:08.165Z,52.00
2017-10-18T06:41:35.661Z,52.00
2017-10-18T06:44:03.192Z,52.40
2017-10-18T06:46:30.744Z,52.10
2017-10-18T06:48:58.235Z,52.60
2017-10-18T06:51:25.728Z,52.90
2017-10-18T06:53:54.257Z,53.40
2017-10-18T06:56:21.757Z,53.30
2017-10-18T06:58:50.069Z,53.30
2017-10-18T07:01:17.572Z,53.30
2017-10-18T07:03:45.099Z,53.30
2017-10-18T07:06:12.604Z,53.10
2017-10-18T07:08:40.912Z,53.40
2017-10-18T07:11:08.445Z,53.40
2017-10-18T07:13:36.708Z,53.80
2017-10-18T07:16:04.979Z,54.00
2017-10-18T07:18:32.521Z,54.00
2017-10-18T07:21:00.029Z,54.10
2017-10-18T07:23:27.520Z,53.90
2017-10-18T07:25:55.046Z,54.00
2017-10-18T07:28:22.544Z,54.10
2017-10-18T07:30:50.079Z,54.20
2017-10-18T07:33:17.584Z,54.40
2017-10-18T07:35:45.877Z,54.50
2017-10-18T07:38:13.395Z,54.60
2017-10-18T07:40:40.924Z,54.60
2017-10-18T07:43:08.424Z,54.00
2017-10-18T07:45:36.736Z,53.90
2017-10-18T07:48:04.277Z,53.90
2017-10-18T07:50:32.537Z,54.50
2017-10-18T07:53:00.812Z,54.50
2017-10-18T07:55:29.124Z,54.70
2017-10-18T07:57:56.624Z,54.70
2017-10-18T08:00:24.116Z,55.40
2017-10-18T08:02:52.416Z,55.90
2017-10-18T08:05:19.916Z,55.90
2017-10-18T08:07:47.420Z,56.30
2017-10-18T08:10:14.964Z,56.60
2017-10-18T08:12:43.220Z,57.10
2017-10-18T08:15:11.508Z,57.00
2017-10-18T08:17:39.771Z,57.10
2017-10-18T08:20:08.055Z,56.60
2017-10-18T08:22:36.357Z,56.50
2017-10-18T08:25:03.851Z,56.50
2017-10-18T08:27:31.354Z,56.50
2017-10-18T08:29:58.885Z,56.60
2017-10-18T08:32:26.385Z,55.80
2017-10-18T08:34:53.903Z,55.50
2017-10-18T08:37:22.164Z,53.80
2017-10-18T08:39:49.678Z,53.80
2017-10-18T08:42:17.206Z,52.90
2017-10-18T08:44:44.704Z,52.50
2017-10-18T08:47:12.200Z,52.30
2017-10-18T08:49:39.736Z,51.30
2017-10-18T08:52:07.233Z,51.50
2017-10-18T08:54:34.772Z,51.20
2017-10-18T08:57:02.276Z,51.90
2017-10-18T08:59:29.770Z,51.10
2017-10-18T09:01:57.298Z,50.90
2017-10-18T09:04:24.795Z,51.30
2017-10-18T09:06:52.281Z,50.60
2017-10-18T09:09:19.812Z,49.00
2017-10-18T09:11:47.299Z,49.70
2017-10-18T09:14:14.817Z,48.40
2017-10-18T09:16:42.305Z,48.70
2017-10-18T09:19:09.846Z,47.70
2017-10-18T09:21:38.103Z,48.00
2017-10-18T09:24:05.588Z,47.90
2017-10-18T09:26:33.120Z,48.00
2017-10-18T09:29:00.617Z,47.50
2017-10-18T09:31:28.112Z,47.50
2017-10-18T09:33:55.629Z,47.70
2017-10-18T09:36:23.128Z,47.30
2017-10-18T09:38:50.648Z,46.90
2017-10-18T09:41:18.216Z,45.90
2017-10-18T09:43:45.714Z,47.00
2017-10-18T09:46:13.207Z,47.20
2017-10-18T09:48:40.743Z,47.70
2017-10-18T09:51:09.008Z,49.50
2017-10-18T09:53:36.540Z,49.50
2017-10-18T09:56:04.033Z,48.50
2017-10-18T09:58:32.327Z,47.70
2017-10-18T10:00:59.861Z,47.60
2017-10-18T10:03:28.128Z,47.10
2017-10-18T10:05:55.627Z,47.00
2017-10-18T10:08:23.156Z,47.10
2017-10-18T10:10:51.420Z,48.10
2017-10-18T10:13:18.917Z,48.00
2017-10-18T10:15:46.445Z,48.40
2017-10-18T10:18:14.711Z,48.80
2017-10-18T10:20:42.248Z,48.80
2017-10-18T10:23:09.746Z,48.90
2017-10-18T10:25:38.017Z,49.20
2017-10-18T10:28:06.315Z,49.50
2017-10-18T10:30:33.816Z,49.50
2017-10-18T10:33:01.346Z,49.60
2017-10-18T10:35:28.872Z,48.80
2017-10-18T10:37:56.375Z,48.70
2017-10-18T10:40:23.868Z,49.00
2017-10-18T10:42:52.172Z,49.40
2017-10-18T10:45:19.673Z,49.40
2017-10-18T10:47:47.204Z,49.50
2017-10-18T10:50:14.738Z,49.40
2017-10-18T10:52:42.233Z,50.00
2017-10-18T10:55:09.766Z,50.20
2017-10-18T10:57:37.279Z,50.60
2017-10-18T11:00:05.579Z,50.90
2017-10-18T11:02:33.108Z,50.90
2017-10-18T11:05:00.644Z,50.80
2017-10-18T11:07:28.136Z,50.90
2017-10-18T11:09:56.397Z,50.50
2017-10-18T11:12:24.715Z,49.70
2017-10-18T11:14:52.198Z,49.70
2017-10-18T11:17:19.744Z,50.00
2017-10-18T11:19:47.267Z,49.50
2017-10-18T11:22:14.762Z,49.80
2017-10-18T11:24:42.256Z,49.50
2017-10-18T11:27:09.781Z,49.10
2017-10-18T11:29:37.272Z,48.10
2017-10-18T11:32:05.577Z,48.80
2017-10-18T11:34:33.082Z,48.80
2017-10-18T11:37:00.587Z,49.20
2017-10-18T11:39:28.115Z,48.70
2017-10-18T11:41:55.611Z,49.40
2017-10-18T11:44:23.135Z,48.50
2017-10-18T11:46:51.431Z,48.30
2017-10-18T11:49:18.927Z,48.20
2017-10-18T11:51:46.452Z,48.80
2017-10-18T11:54:13.945Z,48.90
2017-10-18T11:56:41.436Z,48.70
2017-10-18T11:59:09.737Z,48.80
2017-10-18T12:01:37.222Z,48.80
2017-10-18T12:04:04.726Z,48.60
2017-10-18T12:06:32.999Z,48.90
2017-10-18T12:09:01.360Z,48.30
2017-10-18T12:11:28.857Z,48.30
2017-10-18T12:13:56.392Z,47.40
2017-10-18T12:16:24.693Z,47.80
2017-10-18T12:18:52.272Z,47.70
2017-10-18T12:21:19.809Z,47.80
2017-10-18T12:23:47.308Z,47.30
2017-10-18T12:26:14.813Z,47.50
2017-10-18T12:28:42.356Z,47.10
2017-10-18T12:31:10.611Z,47.00
2017-10-18T12:33:38.096Z,47.00
2017-10-18T12:36:06.562Z,47.10
2017-10-18T12:38:34.820Z,47.40
2017-10-18T12:41:02.306Z,47.40
2017-10-18T12:43:30.618Z,46.80
2017-10-18T12:45:58.127Z,46.80
2017-10-18T12:48:26.396Z,47.60
2017-10-18T12:50:53.895Z,47.50
2017-10-18T12:53:21.395Z,47.40
2017-10-18T12:55:48.895Z,48.20
2017-10-18T12:58:16.404Z,47.50
2017-10-18T13:00:44.673Z,47.40
2017-10-18T13:03:12.173Z,47.40
2017-10-18T13:05:39.680Z,47.30
2017-10-18T13:08:07.176Z,47.10
2017-10-18T13:10:34.683Z,47.40
2017-10-18T13:13:02.219Z,47.40
2017-10-18T13:15:29.716Z,47.40
2017-10-18T13:17:57.212Z,47.10
2017-10-18T13:20:25.500Z,47.10
2017-10-18T13:22:52.999Z,47.00
2017-10-18T13:25:20.492Z,47.40
2017-10-18T13:27:48.767Z,47.70
2017-10-18T13:30:17.033Z,47.90
2017-10-18T13:32:44.530Z,47.90
2017-10-18T13:35:12.064Z,48.00
2017-10-18T13:37:40.313Z,48.00
2017-10-18T13:40:07.813Z,47.90
2017-10-18T13:42:35.344Z,48.00
2017-10-18T13:45:03.610Z,48.60
2017-10-18T13:47:31.881Z,48.50
2017-10-18T13:49:59.394Z,48.50
2017-10-18T13:52:26.884Z,47.10
2017-10-18T13:54:54.385Z,47.40
2017-10-18T13:57:21.899Z,47.20
2017-10-18T13:59:49.389Z,47.00
2017-10-18T14:02:16.892Z,47.00
2017-10-18T14:04:44.408Z,46.80
2017-10-18T14:07:11.908Z,46.70
2017-10-18T14:09:39.409Z,47.10
2017-10-18T14:12:07.695Z,47.90
2017-10-18T14:14:35.192Z,47.80
2017-10-18T14:17:02.685Z,47.30
2017-10-18T14:19:30.976Z,47.30
2017-10-18T14:21:59.228Z,46.90
2017-10-18T14:24:26.723Z,46.90
2017-10-18T14:26:54.232Z,47.00
2017-10-18T14:29:21.721Z,46.10
2017-10-18T14:31:49.228Z,46.60
2017-10-18T14:34:16.749Z,47.40
2017-10-18T14:36:44.248Z,47.30
2017-10-18T14:39:11.755Z,47.30
2017-10-18T14:41:39.304Z,47.90
2017-10-18T14:44:07.565Z,48.60
2017-10-18T14:46:35.822Z,48.20
2017-10-18T14:49:03.342Z,48.10
2017-10-18T14:51:30.830Z,47.80
2017-10-18T14:53:58.317Z,47.70
2017-10-18T14:56:26.604Z,48.10
2017-10-18T14:58:54.109Z,48.10
2017-10-18T15:01:21.596Z,48.30
2017-10-18T15:03:50.855Z,48.50
2017-10-18T15:06:18.400Z,48.50
2017-10-18T15:08:45.908Z,48.50
2017-10-18T15:11:14.180Z,48.50
2017-10-18T15:13:41.676Z,48.40
2017-10-18T15:16:09.164Z,48.50
2017-10-18T15:18:36.672Z,48.80
2017-10-18T15:21:04.161Z,49.20
2017-10-18T15:23:31.648Z,49.60
2017-10-18T15:25:59.202Z,50.00
2017-10-18T15:28:26.736Z,50.40
2017-10-18T15:30:54.228Z,50.90
2017-10-18T15:33:21.764Z,51.10
2017-10-18T15:35:49.264Z,52.30
2017-10-18T15:38:17.513Z,53.50
2017-10-18T15:40:45.056Z,53.50
2017-10-18T15:43:12.556Z,53.60
2017-10-18T15:45:40.052Z,53.50
2017-10-18T15:48:07.588Z,53.90
2017-10-18T15:50:35.092Z,54.40
2017-10-18T15:53:02.580Z,54.50
2017-10-18T15:55:30.853Z,55.00
2017-10-18T15:57:59.116Z,55.60
2017-10-18T16:00:27.372Z,55.70
2017-10-18T16:02:54.893Z,55.70
2017-10-18T16:05:22.388Z,55.60
2017-10-18T16:07:49.882Z,55.60
2017-10-18T16:10:17.400Z,55.80
2017-10-18T16:12:44.898Z,55.90
2017-10-18T16:15:12.387Z,55.90
2017-10-18T16:17:39.897Z,56.20
2017-10-18T16:20:07.389Z,56.30
2017-10-18T16:22:34.876Z,56.50
2017-10-18T16:25:02.426Z,56.70
2017-10-18T16:27:30.687Z,56.90
2017-10-18T16:29:58.169Z,56.90
2017-10-18T16:32:25.673Z,56.80
2017-10-18T16:34:53.160Z,56.50
2017-10-18T16:37:21.430Z,56.30
2017-10-18T16:39:49.737Z,56.20
2017-10-18T16:42:17.232Z,56.20
2017-10-18T16:44:44.736Z,56.30
2017-10-18T16:47:13.050Z,56.30
2017-10-18T16:49:40.570Z,56.30
2017-10-18T16:52:08.073Z,56.30
2017-10-18T16:54:35.580Z,56.10
2017-10-18T16:57:03.840Z,55.80
2017-10-18T16:59:31.341Z,55.80
2017-10-18T17:01:59.653Z,55.80
2017-10-18T17:04:27.171Z,55.80
2017-10-18T17:06:54.671Z,55.80
2017-10-18T17:09:22.192Z,55.70
2017-10-18T17:11:49.684Z,55.70
2017-10-18T17:14:17.181Z,55.50
2017-10-18T17:16:44.696Z,55.40
2017-10-18T17:19:12.192Z,55.40
2017-10-18T17:21:39.688Z,55.40
2017-10-18T17:24:07.199Z,55.50
2017-10-18T17:26:35.473Z,55.30
2017-10-18T17:29:03.738Z,55.40
2017-10-18T17:31:32.044Z,55.40
2017-10-18T17:33:59.539Z,55.50
2017-10-18T17:36:27.060Z,55.20
2017-10-18T17:38:54.576Z,55.10
2017-10-18T17:41:22.852Z,55.20
2017-10-18T17:43:51.113Z,55.60
2017-10-18T17:46:18.638Z,55.00
2017-10-18T17:48:46.136Z,55.20
2017-10-18T17:51:14.412Z,55.10
2017-10-18T17:53:42.732Z,54.90
2017-10-18T17:56:10.232Z,54.90
2017-10-18T17:58:37.720Z,54.90
2017-10-18T18:01:06.024Z,55.00
2017-10-18T18:03:33.520Z,55.00
2017-10-18T18:06:01.022Z,54.90
2017-10-18T18:08:28.541Z,55.00
2017-10-18T18:10:56.042Z,55.10
2017-10-18T18:13:23.536Z,54.90
2017-10-18T18:15:51.072Z,54.80
2017-10-18T18:18:18.577Z,55.00
2017-10-18T18:20:46.852Z,55.10
2017-10-18T18:23:14.356Z,55.00
2017-10-18T18:25:41.853Z,55.20
2017-10-18T18:28:09.355Z,55.50
2017-10-18T18:30:36.872Z,55.90
2017-10-18T18:33:04.377Z,55.40
2017-10-18T18:35:31.863Z,55.70
2017-10-18T18:37:59.368Z,55.60
2017-10-18T18:40:27.625Z,56.00
2017-10-18T18:42:55.907Z,55.50
2017-10-18T18:45:24.196Z,55.80
2017-10-18T18:47:52.455Z,55.90
2017-10-18T18:50:20.710Z,55.90
2017-10-18T18:52:48.249Z,55.90
2017-10-18T18:55:15.744Z,56.00
2017-10-18T18:57:44.020Z,56.30
2017-10-18T19:00:12.301Z,56.40
2017-10-18T19:02:40.565Z,56.20
2017-10-18T19:05:08.073Z,56.20
2017-10-18T19:07:35.600Z,56.30
2017-10-18T19:10:03.865Z,56.30
2017-10-18T19:12:31.397Z,56.30
2017-10-18T19:14:58.892Z,56.40
2017-10-18T19:17:26.408Z,56.40
2017-10-18T19:19:53.903Z,56.40
2017-10-18T19:22:21.435Z,56.60
2017-10-18T19:24:48.947Z,56.80
2017-10-18T19:27:16.441Z,56.70
2017-10-18T19:29:43.978Z,56.70
2017-10-18T19:32:11.468Z,56.60
2017-10-18T19:34:39.741Z,56.60
2017-10-18T19:37:07.243Z,56.60
2017-10-18T19:39:34.797Z,56.50
2017-10-18T19:42:02.328Z,56.60
2017-10-18T19:44:30.583Z,56.70
2017-10-18T19:46:58.175Z,56.70
2017-10-18T19:49:25.756Z,56.80
2017-10-18T19:51:53.265Z,56.50
2017-10-18T19:54:22.176Z,56.60
2017-10-18T19:56:49.676Z,56.60
2017-10-18T19:59:17.179Z,56.50
2017-10-18T20:01:45.436Z,56.30
2017-10-18T20:04:12.964Z,56.80
2017-10-18T20:06:40.466Z,56.10
2017-10-18T20:09:08.740Z,56.50
2017-10-18T20:11:37.023Z,56.70
2017-10-18T20:14:04.557Z,56.70
2017-10-18T20:16:32.077Z,56.60
2017-10-18T20:18:59.609Z,56.50
2017-10-18T20:21:27.120Z,56.60
2017-10-18T20:23:54.604Z,56.80
2017-10-18T20:26:22.146Z,57.00
2017-10-18T20:28:50.421Z,57.40
2017-10-18T20:31:18.681Z,57.50
2017-10-18T20:33:46.987Z,57.10
2017-10-18T20:36:15.241Z,57.40
2017-10-18T20:38:42.729Z,57.30
2017-10-18T20:41:10.811Z,57.60
2017-10-18T20:43:38.308Z,57.70
2017-10-18T20:46:05.826Z,57.30
2017-10-18T20:48:33.358Z,57.20
2017-10-18T20:51:01.620Z,57.40
2017-10-18T20:53:29.894Z,57.30
2017-10-18T20:55:58.164Z,57.10
2017-10-18T20:58:25.702Z,57.10
2017-10-18T21:00:53.205Z,57.10
2017-10-18T21:03:21.512Z,57.20
2017-10-18T21:05:49.015Z,57.20
2017-10-18T21:08:16.512Z,57.10
2017-10-18T21:10:44.145Z,57.10
2017-10-18T21:13:12.420Z,56.80
2017-10-18T21:15:40.681Z,56.70
2017-10-18T21:18:08.205Z,56.70
2017-10-18T21:20:35.715Z,56.50
2017-10-18T21:23:04.020Z,56.70
2017-10-18T21:25:31.518Z,56.80
2017-10-18T21:27:59.060Z,56.70
2017-10-18T21:30:26.552Z,56.70
2017-10-18T21:32:54.816Z,56.70
2017-10-18T21:35:22.337Z,56.60
2017-10-18T21:37:49.824Z,57.00
2017-10-18T21:40:17.349Z,57.00
2017-10-18T21:42:44.839Z,56.70
2017-10-18T21:45:12.378Z,56.50
2017-10-18T21:47:39.872Z,56.50
2017-10-18T21:50:08.136Z,56.30
2017-10-18T21:52:35.652Z,56.30
2017-10-18T21:55:03.152Z,56.90
2017-10-18T21:57:31.448Z,56.60
2017-10-18T21:59:58.964Z,56.60
2017-10-18T22:02:26.491Z,56.80
2017-10-18T22:04:54.023Z,56.90
2017-10-18T22:07:21.518Z,56.70
2017-10-18T22:09:49.016Z,56.40
2017-10-18T22:12:17.316Z,56.30
2017-10-18T22:14:44.805Z,56.30
2017-10-18T22:17:12.356Z,56.20
2017-10-18T22:19:39.844Z,56.20
2017-10-18T22:22:07.337Z,56.10
2017-10-18T22:24:34.860Z,55.90
2017-10-18T22:27:02.364Z,55.80
2017-10-18T22:29:30.630Z,55.80
2017-10-18T22:31:58.163Z,55.80
2017-10-18T22:34:26.473Z,55.90
2017-10-18T22:36:53.998Z,56.00
2017-10-18T22:39:22.275Z,56.20
2017-10-18T22:41:50.587Z,56.30
2017-10-18T22:44:18.844Z,56.30
2017-10-18T22:46:46.340Z,56.20
2017-10-18T22:49:13.840Z,56.40
2017-10-18T22:51:42.104Z,56.60
2017-10-18T22:54:10.424Z,56.80
2017-10-18T22:56:37.960Z,56.70
2017-10-18T22:59:05.445Z,56.90
2017-10-18T23:01:32.964Z,56.70
2017-10-18T23:04:00.484Z,56.70
2017-10-18T23:06:28.023Z,56.50
2017-10-18T23:08:55.520Z,56.70
2017-10-18T23:11:23.815Z,56.80
2017-10-18T23:13:51.346Z,56.80
2017-10-18T23:16:18.850Z,56.70
2017-10-18T23:18:46.384Z,56.60
2017-10-18T23:21:14.640Z,56.20
2017-10-18T23:23:42.176Z,56.20
2017-10-18T23:26:09.673Z,56.10
2017-10-18T23:28:37.967Z,56.20
2017-10-18T23:31:05.493Z,56.20
2017-10-18T23:33:33.782Z,56.00
2017-10-18T23:36:02.043Z,55.90
2017-10-18T23:38:30.339Z,55.90
2017-10-18T23:40:57.835Z,55.90
2017-10-18T23:43:25.372Z,55.80
2017-10-18T23:45:52.901Z,55.70
2017-10-18T23:48:21.152Z,55.60
2017-10-18T23:50:48.684Z,55.60
2017-10-18T23:53:16.177Z,55.70
2017-10-18T23:55:44.456Z,55.80
2017-10-18T23:58:12.747Z,55.80
